KPF18D LTAC-LGIO
Flight info
| Callsign | KPF18D |
|---|---|
| Flight time | 1h 33m |
| Altitude | 40000 |
| Route | PETAR UG8 YAA UG12 BARPE UM603 SUTIS DCT PIKOS UM600 PARAX |
| Aircraft | CL60/M-SADE3FGHIJ3J4J7P2RWXY/HB1D1 |
Departure
| Time | 2026-05-05 11:04 |
|---|---|
| Airport | Esenboğa International Airport (LTAC) |
Arrival
| Time | 2026-05-05 12:38 |
|---|---|
| Airport | Ioannina King Pyrrhus National Airport (LGIO) |
| Time | Latitude | Longitude | Altitude | Speed | Heading |
|---|---|---|---|---|---|
| 2026-05-05 10:34 | 40.14043 | 33.00036 | 3127 ft | 0 kts | 215° |
| 2026-05-05 10:38 | 40.14127 | 33.00141 | 3129 ft | 0 kts | 216° |
| 2026-05-05 11:00 | 40.14117 | 33.00131 | 3129 ft | 7 kts | 216° |
| 2026-05-05 11:00 | 40.14057 | 33.00145 | 3130 ft | 10 kts | 150° |
| 2026-05-05 11:00 | 40.13974 | 33.00180 | 3132 ft | 16 kts | 207° |
| 2026-05-05 11:00 | 40.13876 | 33.00088 | 3132 ft | 18 kts | 216° |
| 2026-05-05 11:01 | 40.13764 | 32.99979 | 3131 ft | 21 kts | 219° |
| 2026-05-05 11:01 | 40.13636 | 32.99861 | 3129 ft | 23 kts | 217° |
| 2026-05-05 11:01 | 40.13494 | 32.99726 | 3127 ft | 26 kts | 215° |
| 2026-05-05 11:01 | 40.13340 | 32.99578 | 3125 ft | 28 kts | 216° |
| 2026-05-05 11:02 | 40.13175 | 32.99422 | 3125 ft | 29 kts | 217° |
| 2026-05-05 11:02 | 40.13025 | 32.99279 | 3123 ft | 18 kts | 216° |
| 2026-05-05 11:02 | 40.12922 | 32.99180 | 3121 ft | 18 kts | 217° |
| 2026-05-05 11:02 | 40.12838 | 32.99101 | 3119 ft | 5 kts | 210° |
| 2026-05-05 11:03 | 40.12794 | 32.99095 | 3119 ft | 7 kts | 166° |
| 2026-05-05 11:03 | 40.12755 | 32.99141 | 3122 ft | 7 kts | 124° |
| 2026-05-05 11:03 | 40.12725 | 32.99197 | 3124 ft | 8 kts | 125° |
| 2026-05-05 11:03 | 40.12723 | 32.99267 | 3125 ft | 9 kts | 39° |
| 2026-05-05 11:04 | 40.12815 | 32.99354 | 3126 ft | 44 kts | 36° |
| 2026-05-05 11:04 | 40.13361 | 32.99874 | 3133 ft | 143 kts | 36° |
| 2026-05-05 11:04 | 40.14313 | 33.00773 | 3568 ft | 183 kts | 34° |
| 2026-05-05 11:04 | 40.15319 | 33.01710 | 4426 ft | 172 kts | 34° |
| 2026-05-05 11:05 | 40.16242 | 33.02618 | 5236 ft | 171 kts | 35° |
| 2026-05-05 11:05 | 40.17250 | 33.03612 | 6001 ft | 199 kts | 35° |
| 2026-05-05 11:05 | 40.18435 | 33.04777 | 6746 ft | 233 kts | 36° |
| 2026-05-05 11:05 | 40.19843 | 33.06166 | 7503 ft | 264 kts | 36° |
| 2026-05-05 11:06 | 40.21386 | 33.07548 | 8230 ft | 275 kts | 25° |
| 2026-05-05 11:06 | 40.23253 | 33.07958 | 8987 ft | 280 kts | 355° |
| 2026-05-05 11:06 | 40.25133 | 33.07272 | 9744 ft | 286 kts | 335° |
| 2026-05-05 11:06 | 40.26747 | 33.05719 | 10513 ft | 299 kts | 314° |
| 2026-05-05 11:07 | 40.27890 | 33.03313 | 11267 ft | 329 kts | 291° |
| 2026-05-05 11:07 | 40.28150 | 33.00270 | 12083 ft | 353 kts | 265° |
| 2026-05-05 11:07 | 40.27775 | 32.97003 | 13089 ft | 367 kts | 262° |
| 2026-05-05 11:07 | 40.27376 | 32.93679 | 13894 ft | 377 kts | 263° |
| 2026-05-05 11:08 | 40.26971 | 32.90257 | 14668 ft | 380 kts | 263° |
| 2026-05-05 11:08 | 40.26570 | 32.86874 | 15433 ft | 381 kts | 263° |
| 2026-05-05 11:08 | 40.26164 | 32.83444 | 16182 ft | 384 kts | 264° |
| 2026-05-05 11:08 | 40.25754 | 32.79977 | 16927 ft | 387 kts | 264° |
| 2026-05-05 11:09 | 40.25346 | 32.76528 | 17686 ft | 390 kts | 264° |
| 2026-05-05 11:09 | 40.24929 | 32.72998 | 18442 ft | 394 kts | 265° |
| 2026-05-05 11:09 | 40.24510 | 32.69458 | 19192 ft | 398 kts | 265° |
| 2026-05-05 11:09 | 40.24083 | 32.65854 | 19943 ft | 403 kts | 265° |
| 2026-05-05 11:10 | 40.23652 | 32.62218 | 20709 ft | 408 kts | 265° |
| 2026-05-05 11:10 | 40.23215 | 32.58539 | 21478 ft | 414 kts | 266° |
| 2026-05-05 11:10 | 40.22768 | 32.54779 | 22220 ft | 420 kts | 266° |
| 2026-05-05 11:10 | 40.22316 | 32.50994 | 22974 ft | 425 kts | 266° |
| 2026-05-05 11:11 | 40.21859 | 32.47172 | 23729 ft | 430 kts | 266° |
| 2026-05-05 11:11 | 40.21393 | 32.43281 | 24483 ft | 434 kts | 266° |
| 2026-05-05 11:11 | 40.20922 | 32.39360 | 25194 ft | 439 kts | 267° |
| 2026-05-05 11:11 | 40.20451 | 32.35449 | 25905 ft | 442 kts | 267° |
| 2026-05-05 11:12 | 40.19962 | 32.31406 | 26547 ft | 445 kts | 266° |
| 2026-05-05 11:12 | 40.19476 | 32.27396 | 27187 ft | 448 kts | 266° |
| 2026-05-05 11:12 | 40.18989 | 32.23385 | 27747 ft | 452 kts | 267° |
| 2026-05-05 11:12 | 40.18496 | 32.19340 | 28349 ft | 453 kts | 267° |
| 2026-05-05 11:13 | 40.17993 | 32.15233 | 28910 ft | 456 kts | 267° |
| 2026-05-05 11:13 | 40.17493 | 32.11149 | 29374 ft | 459 kts | 267° |
| 2026-05-05 11:13 | 40.17219 | 32.07012 | 29954 ft | 448 kts | 278° |
| 2026-05-05 11:13 | 40.17477 | 32.03007 | 30572 ft | 443 kts | 282° |
| 2026-05-05 11:14 | 40.17777 | 31.99025 | 31176 ft | 440 kts | 282° |
| 2026-05-05 11:14 | 40.18068 | 31.95070 | 31803 ft | 437 kts | 282° |
| 2026-05-05 11:14 | 40.18356 | 31.91136 | 32369 ft | 434 kts | 281° |
| 2026-05-05 11:14 | 40.18666 | 31.87190 | 32864 ft | 431 kts | 283° |
| 2026-05-05 11:15 | 40.19112 | 31.83324 | 33303 ft | 430 kts | 285° |
| 2026-05-05 11:15 | 40.19577 | 31.79484 | 33687 ft | 431 kts | 285° |
| 2026-05-05 11:15 | 40.20045 | 31.75579 | 34106 ft | 430 kts | 285° |
| 2026-05-05 11:15 | 40.20505 | 31.71734 | 34519 ft | 430 kts | 285° |
| 2026-05-05 11:16 | 40.20965 | 31.67872 | 34786 ft | 430 kts | 284° |
| 2026-05-05 11:16 | 40.21423 | 31.64014 | 35052 ft | 430 kts | 284° |
| 2026-05-05 11:16 | 40.21881 | 31.60139 | 35295 ft | 430 kts | 284° |
| 2026-05-05 11:16 | 40.22335 | 31.56290 | 35522 ft | 430 kts | 284° |
| 2026-05-05 11:17 | 40.22790 | 31.52410 | 35753 ft | 431 kts | 284° |
| 2026-05-05 11:17 | 40.23242 | 31.48553 | 35980 ft | 432 kts | 283° |
| 2026-05-05 11:17 | 40.23694 | 31.44680 | 36274 ft | 432 kts | 283° |
| 2026-05-05 11:17 | 40.24146 | 31.40788 | 36567 ft | 432 kts | 283° |
| 2026-05-05 11:18 | 40.24594 | 31.36920 | 36881 ft | 432 kts | 283° |
| 2026-05-05 11:18 | 40.25047 | 31.32993 | 37158 ft | 433 kts | 282° |
| 2026-05-05 11:18 | 40.25494 | 31.29107 | 37407 ft | 433 kts | 282° |
| 2026-05-05 11:18 | 40.25941 | 31.25208 | 37669 ft | 433 kts | 282° |
| 2026-05-05 11:19 | 40.26389 | 31.21296 | 37930 ft | 433 kts | 282° |
| 2026-05-05 11:19 | 40.26832 | 31.17403 | 38170 ft | 433 kts | 282° |
| 2026-05-05 11:19 | 40.27273 | 31.13522 | 38407 ft | 433 kts | 282° |
| 2026-05-05 11:19 | 40.27715 | 31.09616 | 38659 ft | 433 kts | 282° |
| 2026-05-05 11:20 | 40.28155 | 31.05713 | 38879 ft | 433 kts | 282° |
| 2026-05-05 11:20 | 40.28591 | 31.01843 | 39096 ft | 433 kts | 282° |
| 2026-05-05 11:20 | 40.29029 | 30.97940 | 39305 ft | 432 kts | 282° |
| 2026-05-05 11:20 | 40.29465 | 30.94042 | 39484 ft | 433 kts | 282° |
| 2026-05-05 11:21 | 40.29899 | 30.90146 | 39680 ft | 433 kts | 281° |
| 2026-05-05 11:21 | 40.30331 | 30.86257 | 39847 ft | 433 kts | 281° |
| 2026-05-05 11:21 | 40.30762 | 30.82366 | 40027 ft | 433 kts | 281° |
| 2026-05-05 11:22 | 40.31634 | 30.74454 | 40047 ft | 441 kts | 281° |
| 2026-05-05 11:22 | 40.32510 | 30.66463 | 40031 ft | 445 kts | 281° |
| 2026-05-05 11:23 | 40.33384 | 30.58427 | 40027 ft | 446 kts | 281° |
| 2026-05-05 11:23 | 40.34248 | 30.50415 | 40024 ft | 445 kts | 281° |
| 2026-05-05 11:24 | 40.35111 | 30.42369 | 40044 ft | 443 kts | 281° |
| 2026-05-05 11:24 | 40.35960 | 30.34396 | 40059 ft | 443 kts | 281° |
| 2026-05-05 11:25 | 40.36808 | 30.26383 | 40054 ft | 444 kts | 281° |
| 2026-05-05 11:25 | 40.37649 | 30.18379 | 40060 ft | 443 kts | 281° |
| 2026-05-05 11:26 | 40.38490 | 30.10386 | 40062 ft | 443 kts | 281° |
| 2026-05-05 11:26 | 40.39323 | 30.02412 | 40056 ft | 442 kts | 281° |
| 2026-05-05 11:27 | 40.40155 | 29.94384 | 40053 ft | 441 kts | 281° |
| 2026-05-05 11:27 | 40.40969 | 29.86452 | 40061 ft | 441 kts | 281° |
| 2026-05-05 11:28 | 40.41783 | 29.78444 | 40070 ft | 441 kts | 281° |
| 2026-05-05 11:28 | 40.42590 | 29.70468 | 40065 ft | 442 kts | 281° |
| 2026-05-05 11:29 | 40.43389 | 29.62503 | 40074 ft | 442 kts | 281° |
| 2026-05-05 11:29 | 40.44190 | 29.54478 | 40066 ft | 442 kts | 281° |
| 2026-05-05 11:30 | 40.44982 | 29.46476 | 40068 ft | 443 kts | 281° |
| 2026-05-05 11:30 | 40.45764 | 29.38513 | 40060 ft | 443 kts | 281° |
| 2026-05-05 11:31 | 40.46549 | 29.30482 | 40059 ft | 443 kts | 279° |
| 2026-05-05 11:31 | 40.47352 | 29.22456 | 40055 ft | 442 kts | 282° |
| 2026-05-05 11:32 | 40.49141 | 29.14793 | 40054 ft | 439 kts | 292° |
| 2026-05-05 11:32 | 40.51217 | 29.07263 | 40064 ft | 439 kts | 292° |
| 2026-05-05 11:33 | 40.53292 | 28.99709 | 40062 ft | 439 kts | 292° |
| 2026-05-05 11:33 | 40.55362 | 28.92156 | 40066 ft | 440 kts | 292° |
| 2026-05-05 11:34 | 40.57415 | 28.84642 | 40066 ft | 440 kts | 292° |
| 2026-05-05 11:34 | 40.59484 | 28.77045 | 40061 ft | 440 kts | 292° |
| 2026-05-05 11:35 | 40.61544 | 28.69460 | 40062 ft | 440 kts | 292° |
| 2026-05-05 11:35 | 40.63591 | 28.61901 | 40057 ft | 440 kts | 292° |
| 2026-05-05 11:36 | 40.65635 | 28.54332 | 40060 ft | 440 kts | 292° |
| 2026-05-05 11:36 | 40.67685 | 28.46716 | 40059 ft | 440 kts | 292° |
| 2026-05-05 11:37 | 40.69724 | 28.39118 | 40064 ft | 440 kts | 292° |
| 2026-05-05 11:37 | 40.71768 | 28.31479 | 40061 ft | 440 kts | 291° |
| 2026-05-05 11:38 | 40.73790 | 28.23899 | 40062 ft | 440 kts | 291° |
| 2026-05-05 11:38 | 40.75818 | 28.16276 | 40062 ft | 440 kts | 291° |
| 2026-05-05 11:39 | 40.77771 | 28.08905 | 40064 ft | 440 kts | 291° |
| 2026-05-05 11:39 | 40.79795 | 28.01250 | 40066 ft | 440 kts | 291° |
| 2026-05-05 11:40 | 40.81795 | 27.93657 | 40065 ft | 441 kts | 291° |
| 2026-05-05 11:40 | 40.83807 | 27.86001 | 40062 ft | 441 kts | 291° |
| 2026-05-05 11:41 | 40.85809 | 27.78357 | 40063 ft | 440 kts | 291° |
| 2026-05-05 11:41 | 40.87813 | 27.70682 | 40062 ft | 440 kts | 291° |
| 2026-05-05 11:42 | 40.89787 | 27.63096 | 40065 ft | 439 kts | 291° |
| 2026-05-05 11:42 | 40.91777 | 27.55426 | 40065 ft | 439 kts | 291° |
| 2026-05-05 11:43 | 40.93741 | 27.47781 | 40069 ft | 440 kts | 290° |
| 2026-05-05 11:43 | 40.94801 | 27.39786 | 40069 ft | 445 kts | 275° |
| 2026-05-05 11:44 | 40.94506 | 27.31599 | 40062 ft | 447 kts | 269° |
| 2026-05-05 11:44 | 40.94048 | 27.23382 | 40066 ft | 447 kts | 269° |
| 2026-05-05 11:45 | 40.93588 | 27.15190 | 40061 ft | 447 kts | 269° |
| 2026-05-05 11:45 | 40.93126 | 27.07006 | 40063 ft | 446 kts | 269° |
| 2026-05-05 11:46 | 40.92660 | 26.98829 | 40061 ft | 446 kts | 269° |
| 2026-05-05 11:46 | 40.92191 | 26.90673 | 40063 ft | 445 kts | 269° |
| 2026-05-05 11:47 | 40.91716 | 26.82493 | 40046 ft | 445 kts | 269° |
| 2026-05-05 11:47 | 40.91236 | 26.74336 | 40059 ft | 445 kts | 269° |
| 2026-05-05 11:48 | 40.90509 | 26.62151 | 40060 ft | 444 kts | 269° |
| 2026-05-05 11:48 | 40.90018 | 26.54035 | 40053 ft | 444 kts | 269° |
| 2026-05-05 11:49 | 40.89518 | 26.45875 | 40057 ft | 443 kts | 269° |
| 2026-05-05 11:49 | 40.89017 | 26.37786 | 40059 ft | 443 kts | 269° |
| 2026-05-05 11:50 | 40.88508 | 26.29664 | 40069 ft | 442 kts | 268° |
| 2026-05-05 11:50 | 40.87901 | 26.21586 | 40064 ft | 443 kts | 266° |
| 2026-05-05 11:51 | 40.87120 | 26.13490 | 40067 ft | 443 kts | 266° |
| 2026-05-05 11:51 | 40.86338 | 26.05430 | 40064 ft | 443 kts | 266° |
| 2026-05-05 11:52 | 40.85550 | 25.97354 | 40063 ft | 443 kts | 266° |
| 2026-05-05 11:52 | 40.84625 | 25.89333 | 40066 ft | 443 kts | 265° |
| 2026-05-05 11:53 | 40.83652 | 25.81314 | 40068 ft | 443 kts | 265° |
| 2026-05-05 11:53 | 40.82674 | 25.73303 | 40066 ft | 442 kts | 265° |
| 2026-05-05 11:54 | 40.81691 | 25.65284 | 40066 ft | 442 kts | 265° |
| 2026-05-05 11:54 | 40.80704 | 25.57288 | 40064 ft | 442 kts | 265° |
| 2026-05-05 11:55 | 40.79711 | 25.49286 | 40063 ft | 441 kts | 265° |
| 2026-05-05 11:55 | 40.78720 | 25.41342 | 40064 ft | 441 kts | 265° |
| 2026-05-05 11:56 | 40.77712 | 25.33318 | 40064 ft | 441 kts | 264° |
| 2026-05-05 11:56 | 40.76703 | 25.25339 | 40049 ft | 441 kts | 264° |
| 2026-05-05 11:57 | 40.75690 | 25.17366 | 40058 ft | 441 kts | 264° |
| 2026-05-05 11:57 | 40.74674 | 25.09416 | 40053 ft | 441 kts | 264° |
| 2026-05-05 11:58 | 40.73656 | 25.01507 | 40056 ft | 440 kts | 265° |
| 2026-05-05 11:58 | 40.72624 | 24.93535 | 40050 ft | 440 kts | 265° |
| 2026-05-05 11:59 | 40.71589 | 24.85580 | 40062 ft | 439 kts | 264° |
| 2026-05-05 11:59 | 40.70552 | 24.77658 | 40069 ft | 439 kts | 264° |
| 2026-05-05 12:00 | 40.69144 | 24.69834 | 40058 ft | 442 kts | 258° |
| 2026-05-05 12:00 | 40.67446 | 24.62036 | 40045 ft | 442 kts | 259° |
| 2026-05-05 12:01 | 40.65747 | 24.54239 | 40045 ft | 441 kts | 259° |
| 2026-05-05 12:01 | 40.64058 | 24.46504 | 40033 ft | 442 kts | 259° |
| 2026-05-05 12:02 | 40.62363 | 24.38760 | 40033 ft | 442 kts | 259° |
| 2026-05-05 12:02 | 40.60648 | 24.30954 | 40024 ft | 441 kts | 258° |
| 2026-05-05 12:03 | 40.58950 | 24.23244 | 40035 ft | 440 kts | 258° |
| 2026-05-05 12:03 | 40.57246 | 24.15534 | 40051 ft | 439 kts | 258° |
| 2026-05-05 12:04 | 40.55537 | 24.07827 | 40045 ft | 439 kts | 258° |
| 2026-05-05 12:04 | 40.53814 | 24.00082 | 40049 ft | 439 kts | 258° |
| 2026-05-05 12:05 | 40.52100 | 23.92402 | 40045 ft | 438 kts | 258° |
| 2026-05-05 12:05 | 40.50385 | 23.84742 | 40062 ft | 438 kts | 258° |
| 2026-05-05 12:06 | 40.48661 | 23.77069 | 40062 ft | 438 kts | 259° |
| 2026-05-05 12:06 | 40.46920 | 23.69346 | 40062 ft | 438 kts | 259° |
| 2026-05-05 12:07 | 40.45187 | 23.61688 | 40063 ft | 438 kts | 259° |
| 2026-05-05 12:07 | 40.43447 | 23.54023 | 40059 ft | 438 kts | 259° |
| 2026-05-05 12:08 | 40.41690 | 23.46305 | 40057 ft | 438 kts | 259° |
| 2026-05-05 12:08 | 40.39948 | 23.38688 | 40059 ft | 437 kts | 259° |
| 2026-05-05 12:09 | 40.38186 | 23.31003 | 40066 ft | 437 kts | 258° |
| 2026-05-05 12:09 | 40.36427 | 23.23356 | 40063 ft | 437 kts | 258° |
| 2026-05-05 12:10 | 40.34668 | 23.15738 | 40055 ft | 436 kts | 259° |
| 2026-05-05 12:10 | 40.32908 | 23.08142 | 40049 ft | 436 kts | 259° |
| 2026-05-05 12:11 | 40.31131 | 23.00496 | 40043 ft | 436 kts | 258° |
| 2026-05-05 12:11 | 40.29361 | 22.92905 | 40047 ft | 436 kts | 258° |
| 2026-05-05 12:12 | 40.27577 | 22.85282 | 40045 ft | 436 kts | 259° |
| 2026-05-05 12:12 | 40.25801 | 22.77719 | 40044 ft | 436 kts | 259° |
| 2026-05-05 12:13 | 40.24012 | 22.70121 | 40044 ft | 434 kts | 259° |
| 2026-05-05 12:13 | 40.22228 | 22.62575 | 40042 ft | 433 kts | 259° |
| 2026-05-05 12:14 | 40.20437 | 22.55021 | 39913 ft | 434 kts | 259° |
| 2026-05-05 12:14 | 40.19546 | 22.51269 | 39355 ft | 432 kts | 259° |
| 2026-05-05 12:14 | 40.18658 | 22.47548 | 38750 ft | 427 kts | 259° |
| 2026-05-05 12:15 | 40.17776 | 22.43857 | 38164 ft | 422 kts | 259° |
| 2026-05-05 12:15 | 40.16898 | 22.40184 | 37603 ft | 420 kts | 259° |
| 2026-05-05 12:15 | 40.16027 | 22.36537 | 37059 ft | 421 kts | 259° |
| 2026-05-05 12:15 | 40.15146 | 22.32858 | 36528 ft | 421 kts | 259° |
| 2026-05-05 12:16 | 40.14274 | 22.29217 | 36078 ft | 423 kts | 259° |
| 2026-05-05 12:16 | 40.13384 | 22.25513 | 35586 ft | 424 kts | 259° |
| 2026-05-05 12:16 | 40.12501 | 22.21839 | 35020 ft | 426 kts | 259° |
| 2026-05-05 12:16 | 40.11617 | 22.18173 | 34465 ft | 426 kts | 260° |
| 2026-05-05 12:17 | 40.10726 | 22.14482 | 33873 ft | 426 kts | 260° |
| 2026-05-05 12:17 | 40.09831 | 22.10776 | 33319 ft | 428 kts | 260° |
| 2026-05-05 12:17 | 40.08936 | 22.07082 | 32765 ft | 429 kts | 259° |
| 2026-05-05 12:17 | 40.08035 | 22.03366 | 32193 ft | 430 kts | 260° |
| 2026-05-05 12:18 | 40.07125 | 21.99619 | 31622 ft | 431 kts | 260° |
| 2026-05-05 12:18 | 40.06210 | 21.95859 | 31051 ft | 432 kts | 259° |
| 2026-05-05 12:18 | 40.05307 | 21.92157 | 30478 ft | 433 kts | 260° |
| 2026-05-05 12:18 | 40.04388 | 21.88391 | 29906 ft | 433 kts | 260° |
| 2026-05-05 12:19 | 40.03463 | 21.84609 | 29328 ft | 435 kts | 259° |
| 2026-05-05 12:19 | 40.02547 | 21.80868 | 28747 ft | 434 kts | 259° |
| 2026-05-05 12:19 | 40.01630 | 21.77138 | 28175 ft | 431 kts | 259° |
| 2026-05-05 12:19 | 40.00711 | 21.73403 | 27598 ft | 428 kts | 259° |
| 2026-05-05 12:20 | 39.99796 | 21.69687 | 27029 ft | 425 kts | 259° |
| 2026-05-05 12:20 | 39.98895 | 21.66039 | 26475 ft | 421 kts | 258° |
| 2026-05-05 12:20 | 39.98008 | 21.62453 | 25915 ft | 416 kts | 258° |
| 2026-05-05 12:20 | 39.97122 | 21.58874 | 25374 ft | 410 kts | 258° |
| 2026-05-05 12:21 | 39.96223 | 21.55339 | 24829 ft | 406 kts | 256° |
| 2026-05-05 12:21 | 39.95117 | 21.51998 | 24285 ft | 404 kts | 251° |
| 2026-05-05 12:21 | 39.93925 | 21.48663 | 23749 ft | 399 kts | 251° |
| 2026-05-05 12:21 | 39.92765 | 21.45410 | 23223 ft | 394 kts | 251° |
| 2026-05-05 12:22 | 39.91608 | 21.42167 | 22698 ft | 388 kts | 251° |
| 2026-05-05 12:22 | 39.90480 | 21.39006 | 22198 ft | 383 kts | 251° |
| 2026-05-05 12:22 | 39.89363 | 21.35879 | 21707 ft | 378 kts | 251° |
| 2026-05-05 12:22 | 39.88248 | 21.32763 | 21187 ft | 372 kts | 250° |
| 2026-05-05 12:23 | 39.87158 | 21.29715 | 20722 ft | 366 kts | 250° |
| 2026-05-05 12:23 | 39.86090 | 21.26732 | 20225 ft | 361 kts | 250° |
| 2026-05-05 12:23 | 39.85043 | 21.23815 | 19754 ft | 355 kts | 249° |
| 2026-05-05 12:23 | 39.84005 | 21.20922 | 19291 ft | 349 kts | 250° |
| 2026-05-05 12:24 | 39.82987 | 21.18086 | 18837 ft | 343 kts | 249° |
| 2026-05-05 12:24 | 39.81980 | 21.15285 | 18384 ft | 338 kts | 249° |
| 2026-05-05 12:24 | 39.80993 | 21.12541 | 17936 ft | 333 kts | 249° |
| 2026-05-05 12:24 | 39.80009 | 21.09809 | 17492 ft | 328 kts | 249° |
| 2026-05-05 12:25 | 39.79052 | 21.07150 | 17064 ft | 323 kts | 249° |
| 2026-05-05 12:25 | 39.78104 | 21.04521 | 16640 ft | 320 kts | 249° |
| 2026-05-05 12:25 | 39.77157 | 21.01898 | 16212 ft | 316 kts | 249° |
| 2026-05-05 12:25 | 39.76227 | 20.99321 | 15788 ft | 313 kts | 249° |
| 2026-05-05 12:26 | 39.75309 | 20.96781 | 15378 ft | 311 kts | 248° |
| 2026-05-05 12:26 | 39.74395 | 20.94253 | 14965 ft | 308 kts | 248° |
| 2026-05-05 12:26 | 39.73481 | 20.91730 | 14546 ft | 307 kts | 248° |
| 2026-05-05 12:26 | 39.72579 | 20.89239 | 14146 ft | 305 kts | 248° |
| 2026-05-05 12:27 | 39.71672 | 20.86738 | 13742 ft | 303 kts | 248° |
| 2026-05-05 12:27 | 39.70768 | 20.84256 | 13334 ft | 302 kts | 246° |
| 2026-05-05 12:27 | 39.69566 | 20.82010 | 12929 ft | 303 kts | 226° |
| 2026-05-05 12:27 | 39.67876 | 20.80413 | 12525 ft | 303 kts | 212° |
| 2026-05-05 12:28 | 39.66064 | 20.78985 | 12108 ft | 302 kts | 212° |
| 2026-05-05 12:28 | 39.64269 | 20.77560 | 11721 ft | 300 kts | 213° |
| 2026-05-05 12:28 | 39.62475 | 20.76134 | 11321 ft | 298 kts | 212° |
| 2026-05-05 12:28 | 39.60719 | 20.74739 | 10908 ft | 297 kts | 212° |
| 2026-05-05 12:29 | 39.58966 | 20.73348 | 10535 ft | 294 kts | 212° |
| 2026-05-05 12:29 | 39.57177 | 20.71928 | 9956 ft | 298 kts | 211° |
| 2026-05-05 12:29 | 39.55370 | 20.70636 | 9604 ft | 293 kts | 201° |
| 2026-05-05 12:29 | 39.53400 | 20.70110 | 9111 ft | 292 kts | 179° |
| 2026-05-05 12:30 | 39.51440 | 20.70562 | 8895 ft | 279 kts | 158° |
| 2026-05-05 12:30 | 39.49792 | 20.71789 | 8849 ft | 259 kts | 140° |
| 2026-05-05 12:30 | 39.48471 | 20.73258 | 8805 ft | 245 kts | 137° |
| 2026-05-05 12:30 | 39.47208 | 20.74695 | 8733 ft | 239 kts | 137° |
| 2026-05-05 12:31 | 39.45944 | 20.76129 | 8650 ft | 240 kts | 137° |
| 2026-05-05 12:31 | 39.44685 | 20.77565 | 8586 ft | 239 kts | 135° |
| 2026-05-05 12:31 | 39.43729 | 20.79316 | 8503 ft | 235 kts | 109° |
| 2026-05-05 12:31 | 39.43489 | 20.81400 | 8307 ft | 235 kts | 88° |
| 2026-05-05 12:32 | 39.43525 | 20.83517 | 8000 ft | 236 kts | 88° |
| 2026-05-05 12:32 | 39.43592 | 20.85600 | 7819 ft | 229 kts | 80° |
| 2026-05-05 12:32 | 39.44179 | 20.87508 | 7568 ft | 230 kts | 53° |
| 2026-05-05 12:32 | 39.45385 | 20.88833 | 7240 ft | 229 kts | 30° |
| 2026-05-05 12:33 | 39.46801 | 20.89840 | 6854 ft | 231 kts | 29° |
| 2026-05-05 12:33 | 39.48191 | 20.90834 | 6577 ft | 228 kts | 29° |
| 2026-05-05 12:33 | 39.49623 | 20.91754 | 6245 ft | 227 kts | 17° |
| 2026-05-05 12:33 | 39.51158 | 20.92166 | 5936 ft | 225 kts | 9° |
| 2026-05-05 12:34 | 39.52720 | 20.92515 | 5578 ft | 226 kts | 10° |
| 2026-05-05 12:34 | 39.54269 | 20.92858 | 5259 ft | 225 kts | 6° |
| 2026-05-05 12:34 | 39.55833 | 20.92918 | 4927 ft | 224 kts | 359° |
| 2026-05-05 12:34 | 39.57389 | 20.92887 | 4616 ft | 218 kts | 359° |
| 2026-05-05 12:35 | 39.58866 | 20.92784 | 4285 ft | 210 kts | 348° |
| 2026-05-05 12:35 | 39.60174 | 20.91985 | 3972 ft | 209 kts | 324° |
| 2026-05-05 12:35 | 39.61303 | 20.90821 | 3662 ft | 198 kts | 321° |
| 2026-05-05 12:35 | 39.62334 | 20.89749 | 3394 ft | 182 kts | 321° |
| 2026-05-05 12:36 | 39.63272 | 20.88790 | 3105 ft | 164 kts | 321° |
| 2026-05-05 12:36 | 39.64128 | 20.87917 | 2905 ft | 144 kts | 321° |
| 2026-05-05 12:36 | 39.64899 | 20.87129 | 2689 ft | 139 kts | 321° |
| 2026-05-05 12:36 | 39.65657 | 20.86355 | 2486 ft | 136 kts | 321° |
| 2026-05-05 12:37 | 39.66392 | 20.85604 | 2290 ft | 134 kts | 321° |
| 2026-05-05 12:37 | 39.67131 | 20.84851 | 2091 ft | 130 kts | 321° |
| 2026-05-05 12:37 | 39.67872 | 20.84091 | 1941 ft | 136 kts | 322° |
| 2026-05-05 12:37 | 39.68586 | 20.83370 | 1727 ft | 128 kts | 321° |
| 2026-05-05 12:38 | 39.69282 | 20.82655 | 1580 ft | 121 kts | 321° |
| 2026-05-05 12:38 | 39.69835 | 20.82088 | 1572 ft | 55 kts | 322° |
| 2026-05-05 12:38 | 39.69912 | 20.81983 | 1570 ft | 13 kts | 265° |
| 2026-05-05 12:38 | 39.69888 | 20.81928 | 1572 ft | 5 kts | 230° |
| 2026-05-05 12:39 | 39.69858 | 20.81884 | 1573 ft | 6 kts | 220° |
| 2026-05-05 12:39 | 39.69814 | 20.81866 | 1575 ft | 6 kts | 181° |
| 2026-05-05 12:39 | 39.69772 | 20.81886 | 1577 ft | 7 kts | 141° |
| 2026-05-05 12:39 | 39.69725 | 20.81935 | 1578 ft | 9 kts | 141° |
| 2026-05-05 12:40 | 39.69681 | 20.81980 | 1579 ft | 5 kts | 142° |
| 2026-05-05 12:40 | 39.69651 | 20.82010 | 1579 ft | 4 kts | 142° |
| 2026-05-05 12:40 | 39.69624 | 20.82038 | 1579 ft | 5 kts | 141° |
| 2026-05-05 12:40 | 39.69595 | 20.82067 | 1579 ft | 5 kts | 141° |
| 2026-05-05 12:41 | 39.69574 | 20.82089 | 1579 ft | 3 kts | 141° |
| 2026-05-05 12:41 | 39.69531 | 20.82113 | 1580 ft | 6 kts | 204° |
| 2026-05-05 12:41 | 39.69505 | 20.82073 | 1582 ft | 4 kts | 232° |
| 2026-05-05 12:41 | 39.69488 | 20.82049 | 1584 ft | 4 kts | 205° |
| 2026-05-05 12:42 | 39.69461 | 20.82069 | 1584 ft | 5 kts | 144° |
| 2026-05-05 12:42 | 39.69452 | 20.82078 | 1584 ft | 0 kts | 143° |